Time;durP1;ratioP1;P1;durP2;ratioP2;P2;SDS_P1;SDS_P2;PMS_P1;PMS_P2;Temp;Humidity;BMP_temperature;BMP_pressure;BME280_temperature;BME280_humidity;BME280_pressure;Samples;Min_cycle;Max_cycle;Signal;HPM_P1;HPM_P2
2023/05/30 00:01:23;;;;;;;9.98;3.58;;;11.10;99.90;;;;;;5088121;28;20050;-80
2023/05/30 00:03:50;;;;;;;15.88;3.60;;;11.00;99.90;;;;;;5075201;28;20059;-80
2023/05/30 00:06:16;;;;;;;9.38;3.00;;;11.00;99.90;;;;;;5075232;28;20069;-80
2023/05/30 00:08:42;;;;;;;14.63;3.15;;;11.00;99.90;;;;;;5072399;28;20036;-80
2023/05/30 00:11:09;;;;;;;14.40;3.85;;;11.00;99.90;;;;;;5071354;28;20026;-80
2023/05/30 00:13:38;;;;;;;11.30;3.85;;;11.10;99.90;;;;;;5088955;28;20035;-80
2023/05/30 00:16:03;;;;;;;26.02;5.25;;;11.20;99.90;;;;;;5086807;28;20474;-80
2023/05/30 00:18:34;;;;;;;15.00;4.38;;;11.20;99.90;;;;;;5078599;28;20108;-80
2023/05/30 00:21:02;;;;;;;27.15;6.03;;;11.30;99.90;;;;;;5064848;28;20024;-79
2023/05/30 00:23:28;;;;;;;15.13;3.85;;;11.30;99.90;;;;;;5073865;28;20389;-80
2023/05/30 00:25:56;;;;;;;21.05;4.53;;;11.40;99.90;;;;;;5095948;28;20051;-80
2023/05/30 00:28:25;;;;;;;13.82;3.83;;;11.40;99.90;;;;;;5087490;28;20073;-80
2023/05/30 00:30:52;;;;;;;17.38;3.97;;;11.40;99.90;;;;;;5080400;28;20031;-80
2023/05/30 00:33:17;;;;;;;14.75;4.35;;;11.40;99.90;;;;;;5078566;28;20035;-80
2023/05/30 00:35:43;;;;;;;18.50;4.07;;;11.30;99.90;;;;;;5086943;28;20173;-81
2023/05/30 00:38:09;;;;;;;24.33;4.03;;;11.30;99.90;;;;;;5076813;28;20052;-80
2023/05/30 00:40:34;;;;;;;18.48;3.88;;;11.30;99.90;;;;;;5086853;28;20076;-80
2023/05/30 00:43:00;;;;;;;18.30;3.83;;;11.30;99.90;;;;;;5083013;28;20032;-80
2023/05/30 00:45:25;;;;;;;13.68;4.78;;;11.30;99.90;;;;;;5091368;28;20020;-80
2023/05/30 00:47:53;;;;;;;19.27;6.03;;;11.30;99.90;;;;;;5092152;28;20036;-80
2023/05/30 00:50:19;;;;;;;16.42;4.03;;;11.30;99.90;;;;;;5052347;28;20028;-81
2023/05/30 00:52:49;;;;;;;15.40;4.03;;;11.30;99.90;;;;;;5083294;28;20337;-80
2023/05/30 00:55:16;;;;;;;13.55;4.05;;;11.30;99.90;;;;;;5082654;28;20032;-80
2023/05/30 00:57:42;;;;;;;18.20;3.75;;;11.30;99.90;;;;;;5086886;28;20035;-80
2023/05/30 01:00:13;;;;;;;22.40;4.32;;;11.30;99.90;;;;;;5093965;28;20028;-81
2023/05/30 01:02:39;;;;;;;18.65;4.15;;;11.30;99.90;;;;;;5095040;28;20035;-81
2023/05/30 01:05:05;;;;;;;24.95;3.80;;;11.30;99.90;;;;;;5092438;28;20016;-81
2023/05/30 01:07:33;;;;;;;25.48;5.28;;;11.30;99.90;;;;;;5096701;28;20495;-80
2023/05/30 01:09:59;;;;;;;21.40;3.78;;;11.20;99.90;;;;;;5077904;28;20057;-81
2023/05/30 01:13:10;;;;;;;21.48;4.80;;;11.20;99.90;;;;;;5085777;28;20031;-80
2023/05/30 01:15:43;;;;;;;22.98;4.13;;;11.20;99.90;;;;;;5050779;28;20074;-81
2023/05/30 01:18:26;;;;;;;17.45;5.50;;;11.10;99.90;;;;;;5072678;28;20036;-81
2023/05/30 01:20:59;;;;;;;9.55;3.55;;;11.00;99.90;;;;;;5094549;28;20507;-81
2023/05/30 01:23:41;;;;;;;12.05;3.63;;;11.00;99.90;;;;;;5070011;28;20027;-80
2023/05/30 01:26:57;;;;;;;13.88;3.05;;;11.00;99.90;;;;;;5091899;28;20059;-81
2023/05/30 01:29:24;;;;;;;15.95;3.72;;;10.90;99.90;;;;;;4991371;28;20037;-80
2023/05/30 01:31:50;;;;;;;15.98;4.05;;;10.90;99.90;;;;;;4996926;28;20034;-80
2023/05/30 01:34:17;;;;;;;22.30;4.10;;;10.80;99.90;;;;;;5027083;28;20193;-80
2023/05/30 01:36:42;;;;;;;27.67;4.68;;;10.70;99.90;;;;;;5082572;28;20484;-82
2023/05/30 01:39:09;;;;;;;21.65;4.13;;;10.70;99.90;;;;;;5076959;28;20039;-80
2023/05/30 01:41:44;;;;;;;19.88;4.10;;;10.70;99.90;;;;;;5077053;28;20028;-80
2023/05/30 01:44:33;;;;;;;25.00;4.68;;;10.60;99.90;;;;;;5075846;28;20500;-80
2023/05/30 01:47:12;;;;;;;20.92;4.10;;;10.70;99.90;;;;;;5088919;28;20128;-81
2023/05/30 01:49:46;;;;;;;24.08;4.55;;;10.70;99.90;;;;;;5077373;28;20106;-80
2023/05/30 01:52:14;;;;;;;13.88;3.67;;;10.70;99.90;;;;;;5072311;28;20133;-80
2023/05/30 01:54:44;;;;;;;23.90;4.18;;;10.70;99.90;;;;;;5083106;28;20494;-80
2023/05/30 01:57:12;;;;;;;18.02;4.18;;;10.70;99.90;;;;;;5077424;28;20028;-80
2023/05/30 01:59:39;;;;;;;16.73;3.83;;;10.70;99.90;;;;;;5079978;28;20024;-80
2023/05/30 02:02:05;;;;;;;22.42;4.30;;;10.70;99.90;;;;;;5088365;28;20491;-80
2023/05/30 02:04:31;;;;;;;16.48;5.18;;;10.70;99.90;;;;;;5091542;28;20568;-80
2023/05/30 02:06:57;;;;;;;12.20;4.07;;;10.70;99.90;;;;;;5091597;28;20115;-80
2023/05/30 02:09:24;;;;;;;11.93;3.80;;;10.70;99.90;;;;;;5090678;28;20466;-80
2023/05/30 02:11:49;;;;;;;17.15;4.32;;;10.60;99.90;;;;;;5083236;28;20036;-80
2023/05/30 02:14:15;;;;;;;16.75;3.72;;;10.60;99.90;;;;;;5094428;28;20040;-80
2023/05/30 02:16:41;;;;;;;15.45;4.07;;;10.60;99.90;;;;;;5084050;28;20491;-80
2023/05/30 02:19:06;;;;;;;14.70;3.25;;;10.50;99.90;;;;;;5078284;28;20066;-80
2023/05/30 02:21:32;;;;;;;11.52;3.35;;;10.50;99.90;;;;;;5078411;28;20112;-81
2023/05/30 02:23:58;;;;;;;11.93;4.13;;;10.50;99.90;;;;;;5078338;28;20032;-81
2023/05/30 02:27:08;;;;;;;12.32;3.50;;;10.50;99.90;;;;;;5124548;27;20357;-81
2023/05/30 02:29:34;;;;;;;7.68;3.05;;;10.50;99.90;;;;;;5125557;27;20027;-81
2023/05/30 02:32:01;;;;;;;13.90;3.38;;;10.50;99.90;;;;;;5118430;27;20051;-81
2023/05/30 02:34:26;;;;;;;10.23;3.60;;;10.50;99.90;;;;;;5113739;27;20088;-81
2023/05/30 02:36:52;;;;;;;10.45;3.33;;;10.40;99.90;;;;;;5120526;27;20031;-81
2023/05/30 02:39:18;;;;;;;9.93;2.97;;;10.30;99.90;;;;;;5115732;27;20030;-81
2023/05/30 02:41:43;;;;;;;10.75;3.20;;;10.30;99.90;;;;;;5119212;27;20106;-81
2023/05/30 02:44:09;;;;;;;14.23;3.80;;;10.20;99.90;;;;;;5131012;27;20016;-81
2023/05/30 02:46:36;;;;;;;10.05;3.10;;;10.00;99.90;;;;;;5129956;27;20041;-81
2023/05/30 02:49:02;;;;;;;19.98;3.80;;;10.00;99.90;;;;;;5123955;27;20142;-81
2023/05/30 02:51:28;;;;;;;12.15;3.60;;;9.90;99.90;;;;;;5120786;27;20126;-81
2023/05/30 02:53:53;;;;;;;12.15;3.10;;;9.80;99.90;;;;;;5099343;27;20122;-81
2023/05/30 02:56:22;;;;;;;21.83;5.03;;;9.70;99.90;;;;;;5124986;27;20023;-80
2023/05/30 02:58:48;;;;;;;18.92;4.82;;;9.70;99.90;;;;;;5107631;27;20110;-81
2023/05/30 03:01:14;;;;;;;15.77;3.92;;;9.60;99.90;;;;;;5116953;27;20548;-81
2023/05/30 03:03:41;;;;;;;11.93;3.80;;;9.50;99.90;;;;;;5127175;27;20392;-81
2023/05/30 03:06:07;;;;;;;12.57;3.55;;;9.50;99.90;;;;;;5120407;27;20452;-81
2023/05/30 03:08:33;;;;;;;21.02;4.78;;;9.50;99.90;;;;;;5133228;27;20026;-81
2023/05/30 03:10:58;;;;;;;21.73;4.07;;;9.40;99.90;;;;;;5121406;27;20369;-81
2023/05/30 03:13:24;;;;;;;18.15;4.78;;;9.30;99.90;;;;;;5128775;27;20118;-81
2023/05/30 03:15:49;;;;;;;18.15;4.75;;;9.30;99.90;;;;;;5116357;27;20026;-81
2023/05/30 03:18:15;;;;;;;24.60;4.78;;;9.30;99.90;;;;;;5116408;27;20034;-81
2023/05/30 03:20:40;;;;;;;20.58;4.57;;;9.30;99.90;;;;;;5120484;27;20067;-81
2023/05/30 03:23:07;;;;;;;24.15;5.18;;;9.30;99.90;;;;;;5129654;27;20069;-81
2023/05/30 03:25:32;;;;;;;22.17;4.93;;;9.30;99.90;;;;;;5127717;27;20432;-81
2023/05/30 03:27:58;;;;;;;21.98;4.93;;;9.40;99.90;;;;;;5120231;27;20019;-81
2023/05/30 03:30:26;;;;;;;33.33;5.30;;;9.50;99.90;;;;;;5126462;27;20031;-82
2023/05/30 03:32:53;;;;;;;26.73;5.25;;;9.50;99.90;;;;;;5121650;27;20023;-80
2023/05/30 03:35:19;;;;;;;25.58;5.30;;;9.60;99.90;;;;;;5117970;27;20023;-82
2023/05/30 03:37:44;;;;;;;22.52;4.72;;;9.70;99.90;;;;;;5114310;27;20516;-81
2023/05/30 03:40:13;;;;;;;24.65;4.95;;;9.70;99.90;;;;;;5110844;27;20518;-81
2023/05/30 03:42:39;;;;;;;37.78;4.78;;;9.80;99.90;;;;;;5122529;27;20031;-81
2023/05/30 03:45:05;;;;;;;33.30;5.88;;;9.70;99.90;;;;;;5116043;27;20038;-81
2023/05/30 03:47:30;;;;;;;27.50;5.22;;;9.80;99.90;;;;;;5116262;27;20027;-81
2023/05/30 03:49:56;;;;;;;24.55;4.53;;;9.80;99.90;;;;;;5114581;27;20119;-81
2023/05/30 03:52:21;;;;;;;20.73;4.55;;;9.80;99.90;;;;;;5110293;27;20461;-81
2023/05/30 03:54:47;;;;;;;17.58;4.43;;;9.80;99.90;;;;;;5110771;27;20112;-81
2023/05/30 03:57:12;;;;;;;18.65;4.35;;;9.90;99.90;;;;;;5113420;27;20071;-81
2023/05/30 03:59:38;;;;;;;19.38;4.50;;;9.90;99.90;;;;;;5112102;27;20019;-81
2023/05/30 04:02:04;;;;;;;20.63;3.95;;;9.90;99.90;;;;;;5103148;28;20020;-81
2023/05/30 04:04:31;;;;;;;22.70;4.70;;;9.90;99.90;;;;;;5114237;27;20058;-81
2023/05/30 04:06:59;;;;;;;36.13;5.50;;;10.00;99.90;;;;;;5109211;27;20048;-81
2023/05/30 04:09:24;;;;;;;23.55;6.10;;;10.00;99.90;;;;;;5111476;27;20115;-81
2023/05/30 04:11:53;;;;;;;22.00;5.38;;;10.00;99.90;;;;;;5107756;27;20332;-81
2023/05/30 04:14:19;;;;;;;30.98;5.30;;;10.00;99.90;;;;;;5116558;27;20032;-81
2023/05/30 04:16:44;;;;;;;28.20;5.75;;;10.10;99.90;;;;;;5116205;27;20023;-81
2023/05/30 04:19:10;;;;;;;33.13;5.80;;;10.20;99.90;;;;;;5116445;27;20058;-81
2023/05/30 04:21:36;;;;;;;33.40;5.53;;;10.20;99.90;;;;;;5106674;27;20376;-81
2023/05/30 04:24:01;;;;;;;29.08;5.90;;;10.30;99.90;;;;;;5114669;27;20055;-81
2023/05/30 04:26:27;;;;;;;28.95;4.97;;;10.30;99.90;;;;;;5107613;27;20358;-81
2023/05/30 04:28:58;;;;;;;29.38;5.85;;;10.30;99.90;;;;;;5110511;27;20031;-81
2023/05/30 04:31:24;;;;;;;28.52;4.93;;;10.30;99.90;;;;;;5103835;27;20477;-81
2023/05/30 04:33:54;;;;;;;26.25;4.90;;;10.40;99.90;;;;;;5111877;27;20103;-81
2023/05/30 04:36:20;;;;;;;16.80;3.88;;;10.40;99.90;;;;;;5119917;27;20035;-81
2023/05/30 04:38:52;;;;;;;25.15;5.65;;;10.40;99.90;;;;;;5109025;27;20022;-81
2023/05/30 04:41:24;;;;;;;35.15;5.75;;;10.50;99.90;;;;;;5099735;27;20169;-82
2023/05/30 04:43:54;;;;;;;25.45;5.75;;;10.50;99.90;;;;;;5117699;27;20151;-81
2023/05/30 04:46:23;;;;;;;32.65;5.85;;;10.60;99.90;;;;;;5117969;27;20116;-81
2023/05/30 04:48:53;;;;;;;41.78;6.32;;;10.60;99.90;;;;;;5115839;27;20027;-81
2023/05/30 04:51:20;;;;;;;30.65;7.35;;;10.60;99.90;;;;;;5116007;27;20499;-81
2023/05/30 04:53:46;;;;;;;30.88;6.63;;;10.70;99.90;;;;;;5107596;27;20107;-81
2023/05/30 04:56:11;;;;;;;30.63;5.68;;;10.70;99.90;;;;;;5106889;27;20165;-81
2023/05/30 04:58:40;;;;;;;24.92;5.07;;;10.70;99.90;;;;;;5120955;27;20038;-81
2023/05/30 05:01:09;;;;;;;45.88;7.03;;;10.70;99.90;;;;;;5118716;27;20028;-81
2023/05/30 05:03:36;;;;;;;29.77;6.53;;;10.70;99.90;;;;;;5116641;27;20151;-81
2023/05/30 05:06:02;;;;;;;31.35;7.32;;;10.80;99.90;;;;;;5109592;27;20039;-81
2023/05/30 05:08:29;;;;;;;39.97;8.35;;;10.80;99.90;;;;;;5108222;27;20023;-81
2023/05/30 05:10:55;;;;;;;23.27;5.68;;;10.80;99.90;;;;;;5106345;27;20047;-82
2023/05/30 05:13:20;;;;;;;31.88;7.10;;;10.80;99.90;;;;;;5116145;27;20019;-81
2023/05/30 05:15:46;;;;;;;33.42;6.65;;;10.90;99.90;;;;;;5108100;27;20028;-81
2023/05/30 05:18:12;;;;;;;35.63;6.03;;;10.80;99.90;;;;;;5115321;27;20394;-81
2023/05/30 05:20:38;;;;;;;37.65;6.45;;;11.00;99.90;;;;;;5114424;27;20040;-81
2023/05/30 05:23:03;;;;;;;39.05;6.65;;;11.00;99.90;;;;;;5095315;28;20036;-81
2023/05/30 05:25:29;;;;;;;41.13;6.38;;;11.00;99.90;;;;;;5100519;27;20071;-82
2023/05/30 05:27:54;;;;;;;38.92;6.80;;;11.00;99.90;;;;;;5111193;27;21422;-81
2023/05/30 05:30:23;;;;;;;35.35;6.78;;;11.00;99.90;;;;;;5103663;27;20102;-81
2023/05/30 05:32:48;;;;;;;36.00;6.90;;;11.00;99.90;;;;;;5101903;27;20036;-81
2023/05/30 05:35:14;;;;;;;41.33;7.65;;;11.10;99.90;;;;;;5108351;27;20380;-81
2023/05/30 05:37:39;;;;;;;40.53;6.97;;;11.10;99.90;;;;;;5109667;27;20027;-81
2023/05/30 05:40:07;;;;;;;40.40;8.05;;;11.10;99.90;;;;;;5107673;27;20417;-81
2023/05/30 05:42:33;;;;;;;51.70;8.52;;;11.20;99.90;;;;;;5108395;27;20072;-81
2023/05/30 05:45:00;;;;;;;43.25;10.05;;;11.10;99.90;;;;;;5110159;27;20027;-80
2023/05/30 05:47:26;;;;;;;37.70;8.00;;;11.20;99.90;;;;;;5106637;27;20019;-81
2023/05/30 05:49:51;;;;;;;50.30;8.15;;;11.20;99.90;;;;;;5105436;27;20039;-81
2023/05/30 05:52:18;;;;;;;34.80;7.18;;;11.20;99.90;;;;;;5102058;27;20028;-81
2023/05/30 05:54:44;;;;;;;54.22;9.70;;;11.30;99.90;;;;;;5106750;27;20031;-81
2023/05/30 05:57:10;;;;;;;30.83;7.10;;;11.30;99.90;;;;;;5105599;27;20028;-81
2023/05/30 05:59:35;;;;;;;39.80;7.38;;;11.40;99.90;;;;;;5112367;27;20248;-81
2023/05/30 06:02:01;;;;;;;34.92;5.97;;;11.40;99.90;;;;;;5113531;27;20024;-81
2023/05/30 06:04:27;;;;;;;36.97;6.68;;;11.40;99.90;;;;;;5114754;27;20271;-81
2023/05/30 06:06:52;;;;;;;49.08;9.73;;;11.40;99.90;;;;;;5111889;27;20027;-81
2023/05/30 06:09:18;;;;;;;41.97;9.55;;;11.50;99.90;;;;;;5112746;27;20061;-82
2023/05/30 06:11:44;;;;;;;42.85;7.70;;;11.60;99.90;;;;;;5111056;27;20030;-81
2023/05/30 06:17:05;;;;;;;52.15;9.95;;;11.60;99.90;;;;;;5107364;27;20038;-81
2023/05/30 06:19:33;;;;;;;52.75;8.52;;;11.70;99.90;;;;;;5112745;27;20384;-81
2023/05/30 06:21:59;;;;;;;40.30;8.57;;;11.70;99.90;;;;;;5111368;27;20138;-81
2023/05/30 06:24:24;;;;;;;45.80;9.27;;;11.80;99.90;;;;;;5105993;28;20111;-81
2023/05/30 06:26:50;;;;;;;36.15;7.55;;;11.80;99.90;;;;;;5106840;28;20043;-81
2023/05/30 06:29:18;;;;;;;36.58;7.90;;;11.80;99.90;;;;;;5111975;28;20038;-81
2023/05/30 06:31:44;;;;;;;22.45;6.90;;;11.90;99.90;;;;;;5104801;28;20086;-81
2023/05/30 06:34:10;;;;;;;38.15;6.90;;;11.90;99.90;;;;;;5098557;28;20477;-81
2023/05/30 06:36:36;;;;;;;41.65;7.47;;;12.00;99.90;;;;;;5089865;28;20083;-81
2023/05/30 06:39:02;;;;;;;34.17;7.43;;;12.10;99.90;;;;;;5108151;28;20024;-82
2023/05/30 06:41:28;;;;;;;39.40;7.32;;;12.20;99.90;;;;;;5100483;28;20048;-81
2023/05/30 06:43:54;;;;;;;41.00;7.55;;;12.20;99.90;;;;;;5111537;28;20027;-82
2023/05/30 06:46:20;;;;;;;34.65;6.93;;;12.20;99.90;;;;;;5105439;28;20049;-82
2023/05/30 06:48:46;;;;;;;34.83;7.28;;;12.30;99.90;;;;;;5106387;28;20106;-82
2023/05/30 06:51:12;;;;;;;31.17;7.22;;;12.30;99.90;;;;;;5099399;28;20030;-81
2023/05/30 06:53:37;;;;;;;33.17;6.38;;;12.40;99.90;;;;;;5114002;28;20068;-82
2023/05/30 06:56:03;;;;;;;35.80;7.13;;;12.30;99.90;;;;;;5104691;28;20385;-82
2023/05/30 06:58:28;;;;;;;39.50;8.75;;;12.40;99.90;;;;;;5098169;28;20028;-82
2023/05/30 07:00:54;;;;;;;34.92;7.13;;;12.40;99.90;;;;;;5103125;28;20432;-82
2023/05/30 07:03:19;;;;;;;29.58;6.78;;;12.40;99.90;;;;;;5113732;28;20031;-81
2023/05/30 07:05:45;;;;;;;35.00;8.13;;;12.50;99.90;;;;;;5106850;28;20042;-81
2023/05/30 07:08:10;;;;;;;35.92;8.05;;;12.50;99.90;;;;;;5097234;28;20023;-82
2023/05/30 07:10:36;;;;;;;34.83;6.25;;;12.60;99.90;;;;;;5101117;28;20548;-82
2023/05/30 07:13:02;;;;;;;35.97;6.95;;;12.60;99.90;;;;;;5081704;28;20027;-82
2023/05/30 07:15:31;;;;;;;44.45;9.40;;;12.70;99.90;;;;;;5114996;27;20488;-81
2023/05/30 07:17:57;;;;;;;55.33;9.32;;;12.70;99.90;;;;;;5103782;27;20043;-82
2023/05/30 07:20:23;;;;;;;42.78;7.85;;;12.70;99.90;;;;;;5114533;27;20522;-82
2023/05/30 07:22:50;;;;;;;39.10;9.60;;;12.70;99.90;;;;;;5116857;27;20034;-81
2023/05/30 07:25:16;;;;;;;39.90;7.90;;;12.70;99.90;;;;;;5110230;27;20043;-82
2023/05/30 07:27:42;;;;;;;32.47;8.23;;;12.70;99.90;;;;;;5111462;27;20024;-82
2023/05/30 07:30:08;;;;;;;53.00;8.55;;;12.70;99.90;;;;;;5112866;27;20031;-82
2023/05/30 07:32:33;;;;;;;35.53;9.30;;;12.80;99.90;;;;;;5116915;27;20118;-82
2023/05/30 07:34:59;;;;;;;42.30;9.15;;;12.90;99.90;;;;;;5113841;27;20149;-82
2023/05/30 07:37:25;;;;;;;32.03;7.65;;;13.00;99.90;;;;;;5113769;27;20024;-82
2023/05/30 07:39:50;;;;;;;25.67;7.35;;;13.10;99.90;;;;;;5104125;27;20361;-82
2023/05/30 07:42:16;;;;;;;39.67;9.32;;;13.10;99.90;;;;;;5103793;27;20111;-82
2023/05/30 07:44:41;;;;;;;24.38;7.65;;;13.20;99.90;;;;;;5115725;27;20118;-82
2023/05/30 07:47:07;;;;;;;36.40;9.50;;;13.20;99.90;;;;;;5112207;27;20077;-81
2023/05/30 07:49:33;;;;;;;43.97;9.60;;;13.30;99.90;;;;;;5114070;27;20081;-82
2023/05/30 07:51:58;;;;;;;30.25;8.63;;;13.30;99.90;;;;;;5110823;27;20038;-83
2023/05/30 07:54:24;;;;;;;42.28;10.05;;;13.30;99.90;;;;;;5112926;27;20023;-82
2023/05/30 07:56:52;;;;;;;33.42;8.68;;;13.30;99.90;;;;;;5108576;27;20027;-82
2023/05/30 07:59:17;;;;;;;34.42;9.27;;;13.40;99.90;;;;;;5109570;27;20480;-83
2023/05/30 08:01:45;;;;;;;28.80;9.75;;;13.40;99.90;;;;;;5107638;27;20058;-82
2023/05/30 08:04:10;;;;;;;34.85;10.82;;;13.40;99.90;;;;;;5114732;27;20259;-83
2023/05/30 08:06:36;;;;;;;34.33;9.68;;;13.50;99.90;;;;;;5108539;27;20514;-82
2023/05/30 08:09:02;;;;;;;31.67;10.73;;;13.50;99.90;;;;;;5119389;27;20396;-82
2023/05/30 08:11:28;;;;;;;33.63;9.35;;;13.60;99.90;;;;;;5105203;27;20035;-82
2023/05/30 08:13:53;;;;;;;26.13;9.15;;;13.60;99.90;;;;;;5104027;27;20074;-83
2023/05/30 08:16:20;;;;;;;33.38;11.05;;;13.60;99.90;;;;;;5111177;27;20507;-83
2023/05/30 08:18:45;;;;;;;41.55;12.15;;;13.60;99.90;;;;;;5109634;27;20034;-82
2023/05/30 08:21:13;;;;;;;42.13;10.60;;;13.70;99.90;;;;;;5112998;27;20031;-82
2023/05/30 08:23:39;;;;;;;35.70;11.45;;;13.70;99.90;;;;;;5104344;27;20034;-82
2023/05/30 08:26:08;;;;;;;36.40;12.13;;;13.80;99.90;;;;;;5114367;27;20043;-82
2023/05/30 08:28:34;;;;;;;34.08;10.80;;;13.90;99.90;;;;;;5107571;27;20054;-82
2023/05/30 08:31:01;;;;;;;31.73;10.32;;;13.90;99.90;;;;;;5109471;27;20031;-82
2023/05/30 08:33:27;;;;;;;24.45;8.63;;;13.90;99.90;;;;;;5105104;27;20106;-82
2023/05/30 08:35:53;;;;;;;36.53;9.13;;;14.00;99.90;;;;;;5106164;27;20388;-82
2023/05/30 08:38:18;;;;;;;26.98;10.38;;;14.10;99.90;;;;;;5103200;27;20114;-82
2023/05/30 08:40:45;;;;;;;29.92;8.93;;;14.10;99.90;;;;;;5109795;27;20492;-82
2023/05/30 08:43:13;;;;;;;26.30;9.52;;;14.10;99.90;;;;;;5112862;27;20012;-82
2023/05/30 08:45:40;;;;;;;34.38;10.18;;;14.10;99.90;;;;;;5100384;27;20546;-83
2023/05/30 08:48:10;;;;;;;29.90;10.20;;;14.20;99.90;;;;;;5107336;27;20379;-82
2023/05/30 08:50:39;;;;;;;19.60;7.35;;;14.20;99.90;;;;;;5103858;27;20477;-82
2023/05/30 08:53:09;;;;;;;27.23;9.93;;;14.10;99.90;;;;;;5107891;27;20455;-82
2023/05/30 08:55:41;;;;;;;31.45;10.35;;;14.30;99.90;;;;;;5113105;27;20072;-82
2023/05/30 08:58:12;;;;;;;28.27;9.55;;;14.40;99.90;;;;;;5121352;27;20038;-83
2023/05/30 09:00:38;;;;;;;27.73;10.82;;;14.50;99.90;;;;;;5114554;27;20028;-82
2023/05/30 09:03:08;;;;;;;37.83;12.73;;;14.40;99.90;;;;;;5116927;27;20106;-83
2023/05/30 09:05:34;;;;;;;29.05;10.75;;;14.50;99.90;;;;;;5114701;27;20502;-81
2023/05/30 09:08:02;;;;;;;33.15;10.65;;;14.50;99.90;;;;;;5105831;27;20023;-81
2023/05/30 09:10:28;;;;;;;27.52;9.73;;;14.60;99.90;;;;;;5107123;27;20043;-80
2023/05/30 09:12:56;;;;;;;43.92;9.68;;;14.60;99.90;;;;;;5104728;27;20035;-82
2023/05/30 09:15:21;;;;;;;37.15;10.02;;;14.70;99.90;;;;;;5108892;27;20127;-80
2023/05/30 09:17:47;;;;;;;21.25;8.38;;;14.80;99.90;;;;;;5117787;27;20516;-81
2023/05/30 09:20:17;;;;;;;17.02;7.15;;;14.90;99.90;;;;;;5111765;27;20024;-80
2023/05/30 09:22:45;;;;;;;30.65;9.13;;;14.90;99.90;;;;;;5109198;27;20015;-80
2023/05/30 09:25:14;;;;;;;24.35;8.15;;;15.00;99.90;;;;;;5118280;27;20051;-81
2023/05/30 09:27:42;;;;;;;33.33;9.68;;;15.00;99.90;;;;;;5111543;27;20051;-81
2023/05/30 09:30:11;;;;;;;23.48;7.60;;;15.00;99.90;;;;;;5110928;27;20047;-81
2023/05/30 09:32:38;;;;;;;19.38;7.55;;;15.10;99.90;;;;;;5101368;27;20024;-81
2023/05/30 09:35:12;;;;;;;34.95;9.52;;;15.10;99.90;;;;;;5107685;27;20032;-81
2023/05/30 09:37:41;;;;;;;24.25;7.47;;;15.10;99.90;;;;;;5114289;27;20122;-81
2023/05/30 09:40:08;;;;;;;26.60;10.15;;;15.20;99.90;;;;;;5117035;27;20055;-81
2023/05/30 09:42:42;;;;;;;24.48;8.77;;;15.20;99.90;;;;;;5102925;27;20028;-81
2023/05/30 09:45:27;;;;;;;25.23;9.23;;;15.30;99.90;;;;;;5112392;27;20142;-81
2023/05/30 09:47:52;;;;;;;30.40;9.02;;;15.40;99.90;;;;;;5110551;27;20042;-80
2023/05/30 09:50:23;;;;;;;29.73;10.48;;;15.60;99.90;;;;;;5103038;27;20067;-81
2023/05/30 09:52:51;;;;;;;41.65;11.65;;;15.60;99.90;;;;;;5116367;27;20064;-81
2023/05/30 09:55:18;;;;;;;22.63;9.00;;;15.70;99.90;;;;;;5116693;27;20109;-81
2023/05/30 09:58:02;;;;;;;22.02;9.02;;;15.80;99.90;;;;;;5120017;27;20023;-80
2023/05/30 10:00:29;;;;;;;30.80;9.05;;;15.90;99.90;;;;;;5107481;27;20024;-81
2023/05/30 10:02:56;;;;;;;27.65;8.25;;;15.90;99.90;;;;;;5112938;27;20444;-83
2023/05/30 10:05:28;;;;;;;19.40;6.82;;;16.00;99.90;;;;;;5110860;27;20042;-82
2023/05/30 10:07:56;;;;;;;27.63;7.30;;;16.00;99.90;;;;;;5107553;27;20038;-81
2023/05/30 10:10:22;;;;;;;21.35;7.18;;;15.90;99.90;;;;;;5110507;27;20028;-82
2023/05/30 10:12:52;;;;;;;31.77;7.93;;;15.90;99.90;;;;;;5114218;27;20024;-81
2023/05/30 10:15:23;;;;;;;21.63;8.50;;;16.00;99.90;;;;;;5110512;27;20429;-82
2023/05/30 10:18:00;;;;;;;30.95;8.90;;;16.00;99.90;;;;;;5114903;27;20027;-81
2023/05/30 10:20:27;;;;;;;18.65;7.68;;;16.00;99.90;;;;;;5098817;27;20030;-82
2023/05/30 10:22:53;;;;;;;25.67;8.88;;;16.10;99.90;;;;;;5114554;27;20034;-81
2023/05/30 10:25:20;;;;;;;33.58;9.82;;;16.10;99.90;;;;;;5113715;28;20142;-82
2023/05/30 10:27:52;;;;;;;25.20;9.35;;;16.20;99.90;;;;;;5112621;28;20031;-81
2023/05/30 10:30:26;;;;;;;23.60;9.07;;;16.20;99.90;;;;;;5111706;28;20523;-81
2023/05/30 10:33:14;;;;;;;23.65;9.32;;;16.20;99.90;;;;;;5108404;28;20059;-81
2023/05/30 10:35:40;;;;;;;30.75;10.18;;;16.20;99.90;;;;;;5108775;28;20032;-81
2023/05/30 10:38:07;;;;;;;24.63;8.55;;;16.30;99.90;;;;;;5099304;28;20032;-81
2023/05/30 10:40:50;;;;;;;30.60;10.40;;;16.30;99.90;;;;;;5115034;28;20056;-81
2023/05/30 10:43:40;;;;;;;27.33;9.25;;;16.50;99.90;;;;;;5107020;28;20028;-81
2023/05/30 10:46:24;;;;;;;28.40;9.30;;;16.50;99.90;;;;;;5104753;27;20038;-81
2023/05/30 10:49:12;;;;;;;29.58;10.25;;;16.40;99.90;;;;;;5107803;27;20077;-81
2023/05/30 10:51:57;;;;;;;37.40;11.43;;;16.40;99.90;;;;;;5095120;27;20027;-81
2023/05/30 10:54:24;;;;;;;41.33;13.13;;;16.60;99.90;;;;;;5117539;27;20023;-81
2023/05/30 10:56:51;;;;;;;29.42;11.45;;;16.60;99.90;;;;;;5122729;27;20063;-81
2023/05/30 10:59:18;;;;;;;28.33;10.95;;;16.70;99.90;;;;;;5122570;27;20391;-82
2023/05/30 11:02:05;;;;;;;29.80;10.90;;;16.80;99.90;;;;;;5120070;27;20103;-81
2023/05/30 11:04:37;;;;;;;26.15;11.45;;;16.90;99.90;;;;;;5113213;27;20118;-81
2023/05/30 11:07:05;;;;;;;32.15;11.52;;;16.90;99.90;;;;;;5107823;27;20059;-81
2023/05/30 11:09:30;;;;;;;24.35;10.60;;;17.00;99.90;;;;;;5102361;27;20443;-80
2023/05/30 11:11:57;;;;;;;22.60;8.90;;;17.10;99.90;;;;;;5124705;27;20054;-81
2023/05/30 11:14:32;;;;;;;29.73;11.82;;;17.20;99.90;;;;;;5126174;27;20031;-81
2023/05/30 11:17:04;;;;;;;19.43;7.77;;;17.20;99.90;;;;;;5114852;27;20101;-80
2023/05/30 11:19:42;;;;;;;25.25;9.73;;;17.20;99.90;;;;;;5113138;27;20059;-81
2023/05/30 11:22:15;;;;;;;31.02;10.00;;;17.30;99.90;;;;;;5106095;27;20065;-81
2023/05/30 11:24:45;;;;;;;25.40;7.90;;;17.20;99.90;;;;;;5113758;27;20493;-81
2023/05/30 11:27:12;;;;;;;25.48;9.00;;;17.30;99.90;;;;;;5111965;27;20050;-83
2023/05/30 11:29:55;;;;;;;29.75;7.75;;;17.40;99.90;;;;;;5113486;27;20038;-83
2023/05/30 11:32:24;;;;;;;18.10;6.70;;;17.40;99.90;;;;;;5114431;27;20024;-83
2023/05/30 11:35:17;;;;;;;19.65;7.25;;;17.40;99.90;;;;;;5107826;27;20023;-83
2023/05/30 11:37:44;;;;;;;28.00;10.00;;;17.40;99.90;;;;;;5099019;27;20054;-83
2023/05/30 11:40:13;;;;;;;25.98;9.43;;;17.30;99.90;;;;;;5119423;27;20509;-83
2023/05/30 11:42:38;;;;;;;21.17;8.75;;;17.40;99.90;;;;;;5108025;27;20054;-83
2023/05/30 11:45:05;;;;;;;22.23;8.38;;;17.40;99.90;;;;;;5118781;27;20038;-83
2023/05/30 11:47:31;;;;;;;27.75;7.88;;;17.50;99.90;;;;;;5117855;27;20400;-84
2023/05/30 11:49:57;;;;;;;21.85;7.88;;;17.50;99.90;;;;;;5107080;27;20035;-84
2023/05/30 11:52:23;;;;;;;19.75;7.72;;;17.40;99.90;;;;;;5118490;27;20504;-83
2023/05/30 11:54:48;;;;;;;30.00;8.77;;;17.40;99.90;;;;;;5118489;27;20028;-83
2023/05/30 11:57:17;;;;;;;21.80;8.02;;;17.40;99.90;;;;;;5120319;27;20211;-83
2023/05/30 11:59:44;;;;;;;17.73;7.63;;;17.50;99.90;;;;;;5114900;27;20035;-83
2023/05/30 12:02:10;;;;;;;25.65;7.93;;;17.60;99.90;;;;;;5101388;28;20028;-83
2023/05/30 12:04:38;;;;;;;24.67;7.43;;;17.60;99.90;;;;;;5122094;27;20030;-83
2023/05/30 12:07:05;;;;;;;17.63;5.75;;;17.60;99.90;;;;;;5113541;27;20071;-82
2023/05/30 12:09:41;;;;;;;15.63;5.05;;;17.60;99.90;;;;;;5122023;27;20031;-83
2023/05/30 12:12:07;;;;;;;25.08;5.75;;;17.60;99.90;;;;;;5122501;27;20033;-83
2023/05/30 12:15:02;;;;;;;17.40;5.25;;;17.80;99.90;;;;;;5121098;27;20031;-83
2023/05/30 12:17:28;;;;;;;18.85;5.20;;;17.90;99.90;;;;;;5123284;27;20034;-85
2023/05/30 12:19:55;;;;;;;26.58;5.13;;;18.00;99.90;;;;;;5110534;27;20040;-83
2023/05/30 12:22:22;;;;;;;17.50;5.68;;;18.00;99.90;;;;;;5119472;27;20027;-84
2023/05/30 12:24:49;;;;;;;15.02;4.57;;;18.00;99.90;;;;;;5112485;27;20110;-82
2023/05/30 12:27:25;;;;;;;20.90;5.47;;;18.00;99.90;;;;;;5104923;27;20420;-82
2023/05/30 12:29:51;;;;;;;21.88;5.53;;;18.10;99.90;;;;;;5115671;27;20015;-82
2023/05/30 12:32:26;;;;;;;24.73;6.43;;;18.20;99.90;;;;;;5108253;27;20035;-82
2023/05/30 12:34:56;;;;;;;25.35;5.10;;;18.30;99.90;;;;;;5105915;27;20028;-83
2023/05/30 12:37:22;;;;;;;20.50;4.28;;;18.30;99.90;;;;;;5109277;27;20085;-82
2023/05/30 12:39:51;;;;;;;20.83;4.20;;;18.20;99.90;;;;;;5118361;27;20024;-82
2023/05/30 12:42:25;;;;;;;23.02;4.85;;;18.20;99.90;;;;;;5118284;27;20039;-81
2023/05/30 12:44:55;;;;;;;29.08;4.95;;;18.30;99.90;;;;;;5110063;27;20035;-82